createdAt,value
2018-02-16T00:00:23.595Z,36.00
2018-02-16T00:01:23.531Z,36.00
2018-02-16T00:02:23.469Z,36.00
2018-02-16T00:03:44.403Z,36.00
2018-02-16T00:04:23.352Z,36.00
2018-02-16T00:05:23.286Z,36.00
2018-02-16T00:06:23.229Z,36.00
2018-02-16T00:07:23.166Z,36.00
2018-02-16T00:08:23.105Z,36.00
2018-02-16T00:09:44.039Z,36.00
2018-02-16T00:10:22.985Z,36.00
2018-02-16T00:11:22.923Z,36.00
2018-02-16T00:12:22.862Z,36.00
2018-02-16T00:13:22.799Z,36.00
2018-02-16T00:14:22.738Z,36.00
2018-02-16T00:15:43.667Z,36.00
2018-02-16T00:16:22.623Z,36.00
2018-02-16T00:17:22.555Z,36.00
2018-02-16T00:18:22.495Z,36.00
2018-02-16T00:19:22.432Z,36.00
2018-02-16T00:20:22.372Z,36.00
2018-02-16T00:21:43.300Z,36.00
2018-02-16T00:22:22.260Z,36.00
2018-02-16T00:23:22.191Z,36.00
2018-02-16T00:24:22.131Z,36.00
2018-02-16T00:25:22.073Z,36.00
2018-02-16T00:26:22.018Z,36.00
2018-02-16T00:27:42.935Z,36.00
2018-02-16T00:28:21.889Z,36.00
2018-02-16T00:29:21.839Z,36.00
2018-02-16T00:30:21.768Z,36.00
2018-02-16T00:31:21.712Z,36.00
2018-02-16T00:32:21.653Z,36.00
2018-02-16T00:33:42.571Z,36.00
2018-02-16T00:34:21.526Z,36.00
2018-02-16T00:35:21.466Z,36.00
2018-02-16T00:36:21.403Z,36.00
2018-02-16T00:37:21.351Z,36.00
2018-02-16T00:38:21.279Z,36.00
2018-02-16T00:39:42.217Z,36.00
2018-02-16T00:40:21.157Z,36.00
2018-02-16T00:41:21.099Z,36.00
2018-02-16T00:42:21.029Z,36.00
2018-02-16T00:43:20.974Z,36.00
2018-02-16T00:44:20.915Z,36.00
2018-02-16T00:45:41.838Z,36.00
2018-02-16T00:46:20.791Z,36.00
2018-02-16T00:47:20.729Z,36.00
2018-02-16T00:48:20.668Z,36.00
2018-02-16T00:49:20.605Z,36.00
2018-02-16T00:50:20.543Z,36.00
2018-02-16T00:51:41.473Z,36.00
2018-02-16T00:52:20.426Z,36.00
2018-02-16T00:53:20.362Z,36.00
2018-02-16T00:54:20.300Z,36.00
2018-02-16T00:55:20.240Z,36.00
2018-02-16T00:56:20.181Z,36.00
2018-02-16T00:57:41.106Z,36.00
2018-02-16T00:58:20.056Z,36.00
2018-02-16T00:59:19.997Z,36.00
2018-02-16T01:00:19.935Z,36.00
2018-02-16T01:01:19.873Z,36.00
2018-02-16T01:02:19.812Z,36.00
2018-02-16T01:03:40.742Z,36.00
2018-02-16T01:04:19.691Z,36.00
2018-02-16T01:05:19.633Z,36.00
2018-02-16T01:06:19.570Z,36.00
2018-02-16T01:07:19.505Z,36.00
2018-02-16T01:08:19.456Z,36.00
2018-02-16T01:09:40.373Z,36.00
2018-02-16T01:10:19.321Z,36.00
2018-02-16T01:11:19.263Z,36.00
2018-02-16T01:12:19.241Z,36.00
2018-02-16T01:13:19.156Z,36.00
2018-02-16T01:14:19.083Z,36.00
2018-02-16T01:15:40.024Z,36.00
2018-02-16T01:16:19.024Z,36.00
2018-02-16T01:17:18.900Z,36.00
2018-02-16T01:18:18.844Z,36.00
2018-02-16T01:19:18.796Z,36.00
2018-02-16T01:20:18.730Z,36.00
2018-02-16T01:21:39.640Z,36.00
2018-02-16T01:22:18.598Z,36.00
2018-02-16T01:23:18.542Z,36.00
2018-02-16T01:24:18.487Z,36.00
2018-02-16T01:25:18.417Z,36.00
2018-02-16T01:26:18.353Z,36.00
2018-02-16T01:27:39.278Z,36.00
2018-02-16T01:28:18.234Z,36.00
2018-02-16T01:29:18.169Z,36.00
2018-02-16T01:30:18.112Z,36.00
2018-02-16T01:31:18.052Z,36.00
2018-02-16T01:32:17.983Z,36.00
2018-02-16T01:33:38.919Z,36.00
2018-02-16T01:34:17.868Z,36.00
2018-02-16T01:35:17.799Z,36.00
2018-02-16T01:36:17.742Z,36.00
2018-02-16T01:37:17.681Z,36.00
2018-02-16T01:38:17.614Z,36.00
2018-02-16T01:39:38.547Z,36.00
2018-02-16T01:40:17.494Z,36.00
2018-02-16T01:41:17.436Z,36.00
2018-02-16T01:42:17.375Z,36.00
2018-02-16T01:43:17.311Z,36.00
2018-02-16T01:44:17.252Z,36.00
2018-02-16T01:45:38.178Z,36.00
2018-02-16T01:46:17.128Z,36.00
2018-02-16T01:47:17.068Z,36.00
2018-02-16T01:48:17.008Z,36.00
2018-02-16T01:49:16.949Z,36.00
2018-02-16T01:50:16.887Z,36.00
2018-02-16T01:51:37.815Z,36.00
2018-02-16T01:52:16.763Z,36.00
2018-02-16T01:53:16.720Z,36.00
2018-02-16T01:54:16.642Z,36.00
2018-02-16T01:55:16.579Z,36.00
2018-02-16T01:56:16.529Z,36.00
2018-02-16T01:57:37.445Z,36.00
2018-02-16T01:58:16.396Z,36.00
2018-02-16T01:59:16.344Z,36.00
2018-02-16T02:00:16.285Z,36.00
2018-02-16T02:01:16.215Z,36.00
2018-02-16T02:02:16.161Z,36.00
2018-02-16T02:03:37.079Z,36.00
2018-02-16T02:04:16.034Z,36.00
2018-02-16T02:05:15.977Z,36.00
2018-02-16T02:06:15.915Z,36.00
2018-02-16T02:07:15.854Z,36.00
2018-02-16T02:08:15.794Z,36.00
2018-02-16T02:09:36.714Z,36.00
2018-02-16T02:10:15.664Z,36.00
2018-02-16T02:11:15.605Z,36.00
2018-02-16T02:12:15.552Z,36.00
2018-02-16T02:13:15.484Z,36.00
2018-02-16T02:14:15.428Z,36.00
2018-02-16T02:15:36.362Z,36.00
2018-02-16T02:16:15.307Z,36.00
2018-02-16T02:17:15.247Z,36.00
2018-02-16T02:18:15.182Z,36.00
2018-02-16T02:19:15.120Z,36.00
2018-02-16T02:20:15.068Z,36.00
2018-02-16T02:21:35.989Z,36.00
2018-02-16T02:22:14.937Z,36.00
2018-02-16T02:23:14.878Z,36.00
2018-02-16T02:24:14.814Z,36.00
2018-02-16T02:25:14.750Z,36.00
2018-02-16T02:26:14.691Z,36.00
2018-02-16T02:27:35.621Z,36.00
2018-02-16T02:28:14.567Z,36.00
2018-02-16T02:29:14.505Z,36.00
2018-02-16T02:30:14.448Z,36.00
2018-02-16T02:31:14.388Z,36.00
2018-02-16T02:32:14.323Z,36.00
2018-02-16T02:33:35.252Z,36.00
2018-02-16T02:34:14.201Z,36.00
2018-02-16T02:35:14.137Z,36.00
2018-02-16T02:36:14.082Z,36.00
2018-02-16T02:37:14.036Z,36.00
2018-02-16T02:38:13.956Z,36.00
2018-02-16T02:39:34.883Z,36.00
2018-02-16T02:40:13.834Z,36.00
2018-02-16T02:41:13.775Z,36.00
2018-02-16T02:42:13.714Z,36.00
2018-02-16T02:43:13.651Z,36.00
2018-02-16T02:44:13.591Z,36.00
2018-02-16T02:45:34.516Z,36.00
2018-02-16T02:46:13.467Z,36.00
2018-02-16T02:47:13.407Z,36.00
2018-02-16T02:48:13.345Z,36.00
2018-02-16T02:49:13.285Z,36.00
2018-02-16T02:50:13.222Z,36.00
2018-02-16T02:51:34.154Z,36.00
2018-02-16T02:52:13.100Z,36.00
2018-02-16T02:53:13.041Z,36.00
2018-02-16T02:54:12.978Z,36.00
2018-02-16T02:55:12.917Z,36.00
2018-02-16T02:56:12.860Z,36.00
2018-02-16T02:57:33.784Z,36.00
2018-02-16T02:58:12.746Z,36.00
2018-02-16T02:59:12.674Z,36.00
2018-02-16T03:00:12.616Z,36.00
2018-02-16T03:01:12.553Z,36.00
2018-02-16T03:02:12.519Z,36.00
2018-02-16T03:03:33.418Z,36.00
2018-02-16T03:04:12.380Z,36.00
2018-02-16T03:05:12.326Z,36.00
2018-02-16T03:06:12.257Z,36.00
2018-02-16T03:07:12.194Z,36.00
2018-02-16T03:08:12.136Z,36.00
2018-02-16T03:09:33.053Z,36.00
2018-02-16T03:10:12.015Z,36.00
2018-02-16T03:11:11.954Z,36.00
2018-02-16T03:12:11.884Z,36.00
2018-02-16T03:13:11.831Z,36.00
2018-02-16T03:14:11.767Z,36.00
2018-02-16T03:15:32.696Z,36.00
2018-02-16T03:16:11.644Z,36.00
2018-02-16T03:17:11.581Z,36.00
2018-02-16T03:18:11.514Z,36.00
2018-02-16T03:19:11.457Z,36.00
2018-02-16T03:20:11.397Z,36.00
2018-02-16T03:21:32.326Z,36.00
2018-02-16T03:22:11.275Z,36.00
2018-02-16T03:23:11.214Z,36.00
2018-02-16T03:24:11.150Z,36.00
2018-02-16T03:25:11.087Z,36.00
2018-02-16T03:26:11.028Z,36.00
2018-02-16T03:27:31.952Z,36.00
2018-02-16T03:28:10.905Z,36.00
2018-02-16T03:29:10.843Z,36.00
2018-02-16T03:30:10.782Z,36.00
2018-02-16T03:31:10.722Z,36.00
2018-02-16T03:32:10.659Z,36.00
2018-02-16T03:33:31.584Z,36.00
2018-02-16T03:34:10.538Z,36.00
2018-02-16T03:35:10.474Z,36.00
2018-02-16T03:36:10.414Z,36.00
2018-02-16T03:37:10.353Z,36.00
2018-02-16T03:38:10.295Z,36.00
2018-02-16T03:39:31.221Z,36.00
2018-02-16T03:40:10.173Z,36.00
2018-02-16T03:41:10.126Z,36.00
2018-02-16T03:42:10.049Z,36.00
2018-02-16T03:43:09.986Z,36.00
2018-02-16T03:44:09.928Z,36.00
2018-02-16T03:45:30.852Z,36.00
2018-02-16T03:46:09.806Z,36.00
2018-02-16T03:47:09.740Z,36.00
2018-02-16T03:48:09.682Z,36.00
2018-02-16T03:49:09.634Z,36.00
2018-02-16T03:50:09.559Z,36.00
2018-02-16T03:51:30.489Z,36.00
2018-02-16T03:52:09.452Z,36.00
2018-02-16T03:53:09.378Z,36.00
2018-02-16T03:54:09.324Z,36.00
2018-02-16T03:55:09.255Z,36.00
2018-02-16T03:56:09.193Z,36.00
2018-02-16T03:57:30.120Z,36.00
2018-02-16T03:58:09.093Z,36.00
2018-02-16T03:59:09.011Z,36.00
2018-02-16T04:00:08.953Z,36.00
2018-02-16T04:01:08.900Z,36.00
2018-02-16T04:02:08.828Z,36.00
2018-02-16T04:03:29.757Z,36.00
2018-02-16T04:04:08.726Z,36.00
2018-02-16T04:05:08.652Z,36.00
2018-02-16T04:06:08.590Z,36.00
2018-02-16T04:07:08.534Z,36.00
2018-02-16T04:08:08.466Z,36.00
2018-02-16T04:09:29.393Z,36.00
2018-02-16T04:10:08.341Z,36.00
2018-02-16T04:11:08.276Z,36.00
2018-02-16T04:12:08.224Z,36.00
2018-02-16T04:13:08.161Z,36.00
2018-02-16T04:14:08.096Z,36.00
2018-02-16T04:15:29.030Z,36.00
2018-02-16T04:16:07.979Z,36.00
2018-02-16T04:17:07.916Z,36.00
2018-02-16T04:18:07.852Z,36.00
2018-02-16T04:19:07.793Z,36.00
2018-02-16T04:20:07.730Z,36.00
2018-02-16T04:21:28.660Z,36.00
2018-02-16T04:22:07.606Z,36.00
2018-02-16T04:23:07.542Z,36.00
2018-02-16T04:24:07.482Z,36.00
2018-02-16T04:25:07.426Z,36.00
2018-02-16T04:26:07.365Z,36.00
2018-02-16T04:27:28.288Z,36.00
2018-02-16T04:28:07.240Z,36.00
2018-02-16T04:29:07.179Z,36.00
2018-02-16T04:30:07.119Z,36.00
2018-02-16T04:31:07.056Z,36.00
2018-02-16T04:32:06.994Z,36.00
2018-02-16T04:33:27.922Z,36.00
2018-02-16T04:34:06.871Z,36.00
2018-02-16T04:35:06.816Z,36.00
2018-02-16T04:36:06.751Z,36.00
2018-02-16T04:37:06.690Z,36.00
2018-02-16T04:38:06.629Z,36.00
2018-02-16T04:39:27.556Z,36.00
2018-02-16T04:40:06.504Z,36.00
2018-02-16T04:41:06.445Z,36.00
2018-02-16T04:42:06.381Z,36.00
2018-02-16T04:43:06.321Z,36.00
2018-02-16T04:44:06.271Z,36.00
2018-02-16T04:45:27.199Z,36.00
2018-02-16T04:46:06.137Z,36.00
2018-02-16T04:47:06.089Z,36.00
2018-02-16T04:48:06.020Z,36.00
2018-02-16T04:49:05.957Z,36.00
2018-02-16T04:50:05.899Z,36.00
2018-02-16T04:51:26.820Z,36.00
2018-02-16T04:52:05.773Z,36.00
2018-02-16T04:53:05.715Z,36.00
2018-02-16T04:54:05.649Z,36.00
2018-02-16T04:55:05.587Z,36.00
2018-02-16T04:56:05.531Z,36.00
2018-02-16T04:57:26.468Z,36.00
2018-02-16T04:58:05.406Z,36.00
2018-02-16T04:59:05.349Z,36.00
2018-02-16T05:00:05.300Z,36.00
2018-02-16T05:01:05.233Z,36.00
2018-02-16T05:02:05.164Z,36.00
2018-02-16T05:03:26.108Z,36.00
2018-02-16T05:04:05.047Z,36.00
2018-02-16T05:05:04.991Z,36.00
2018-02-16T05:06:04.915Z,36.00
2018-02-16T05:07:04.865Z,36.00
2018-02-16T05:08:04.807Z,36.00
2018-02-16T05:09:25.735Z,36.00
2018-02-16T05:10:04.678Z,36.00
2018-02-16T05:11:04.618Z,36.00
2018-02-16T05:12:04.558Z,36.00
2018-02-16T05:13:04.492Z,36.00
2018-02-16T05:14:04.436Z,36.00
2018-02-16T05:15:25.361Z,36.00
2018-02-16T05:16:04.305Z,36.00
2018-02-16T05:17:04.264Z,36.00
2018-02-16T05:18:04.186Z,36.00
2018-02-16T05:19:04.124Z,36.00
2018-02-16T05:20:04.064Z,36.00
2018-02-16T05:21:24.996Z,36.00
2018-02-16T05:22:03.942Z,36.00
2018-02-16T05:23:03.879Z,36.00
2018-02-16T05:24:03.817Z,36.00
2018-02-16T05:25:03.757Z,36.00
2018-02-16T05:26:03.694Z,36.00
2018-02-16T05:27:24.624Z,36.00
2018-02-16T05:28:03.574Z,36.00
2018-02-16T05:29:03.513Z,36.00
2018-02-16T05:30:03.451Z,36.00
2018-02-16T05:31:03.387Z,36.00
2018-02-16T05:32:03.327Z,36.00
2018-02-16T05:33:24.255Z,36.00
2018-02-16T05:34:03.210Z,36.00
2018-02-16T05:35:03.146Z,36.00
2018-02-16T05:36:03.088Z,36.00
2018-02-16T05:37:03.038Z,36.00
2018-02-16T05:38:02.962Z,36.00
2018-02-16T05:39:23.890Z,36.00
2018-02-16T05:40:02.840Z,36.00
2018-02-16T05:41:02.781Z,36.00
2018-02-16T05:42:02.716Z,36.00
2018-02-16T05:43:02.654Z,36.00
2018-02-16T05:44:02.595Z,36.00
2018-02-16T05:45:23.521Z,36.00
2018-02-16T05:46:02.471Z,36.00
2018-02-16T05:47:02.413Z,36.00
2018-02-16T05:48:02.352Z,36.00
2018-02-16T05:49:02.297Z,36.00
2018-02-16T05:50:02.229Z,36.00
2018-02-16T05:51:23.156Z,36.00
2018-02-16T05:52:02.107Z,36.00
2018-02-16T05:53:02.061Z,32.00
2018-02-16T05:54:01.986Z,32.00
2018-02-16T05:55:01.926Z,32.00
2018-02-16T05:56:01.887Z,32.00
2018-02-16T05:57:22.788Z,36.00
2018-02-16T05:58:01.749Z,36.00
2018-02-16T05:59:01.678Z,36.00
2018-02-16T06:00:01.626Z,40.00
2018-02-16T06:01:01.571Z,36.00
2018-02-16T06:02:01.503Z,36.00
2018-02-16T06:03:22.427Z,36.00
2018-02-16T06:04:01.391Z,40.00
2018-02-16T06:05:01.321Z,40.00
2018-02-16T06:06:01.259Z,36.00
2018-02-16T06:07:01.200Z,36.00
2018-02-16T06:08:01.141Z,40.00
2018-02-16T06:09:22.067Z,36.00
2018-02-16T06:10:01.016Z,40.00
2018-02-16T06:11:00.954Z,40.00
2018-02-16T06:12:00.892Z,44.00
2018-02-16T06:13:00.837Z,40.00
2018-02-16T06:14:00.774Z,44.00
2018-02-16T06:15:21.706Z,44.00
2018-02-16T06:16:00.681Z,48.00
2018-02-16T06:17:00.600Z,48.00
2018-02-16T06:18:00.544Z,52.00
2018-02-16T06:19:00.489Z,52.00
2018-02-16T06:20:00.430Z,56.00
2018-02-16T06:21:21.361Z,56.00
2018-02-16T06:22:00.310Z,64.00
2018-02-16T06:23:00.249Z,64.00
2018-02-16T06:24:00.195Z,64.00
2018-02-16T06:25:00.136Z,68.00
2018-02-16T06:26:00.081Z,68.00
2018-02-16T06:27:21.029Z,72.00
2018-02-16T06:27:59.971Z,76.00
2018-02-16T06:28:59.918Z,80.00
2018-02-16T06:29:59.854Z,80.00
2018-02-16T06:30:59.850Z,84.00
2018-02-16T06:31:59.751Z,92.00
2018-02-16T06:33:20.691Z,104.00
2018-02-16T06:33:59.634Z,116.00
2018-02-16T06:34:59.578Z,128.00
2018-02-16T06:35:59.523Z,140.00
2018-02-16T06:36:59.482Z,156.00
2018-02-16T06:37:59.413Z,172.00
2018-02-16T06:39:20.350Z,176.00
2018-02-16T06:39:59.302Z,176.00
2018-02-16T06:40:59.250Z,168.00
2018-02-16T06:41:59.197Z,172.00
2018-02-16T06:42:59.145Z,164.00
2018-02-16T06:43:59.095Z,152.00
2018-02-16T06:45:20.023Z,144.00
2018-02-16T06:45:58.976Z,148.00
2018-02-16T06:46:58.922Z,160.00
2018-02-16T06:47:58.869Z,168.00
2018-02-16T06:48:58.817Z,180.00
2018-02-16T06:49:58.760Z,188.00
2018-02-16T06:51:19.699Z,188.00
2018-02-16T06:51:58.651Z,192.00
2018-02-16T06:52:58.599Z,196.00
2018-02-16T06:53:58.544Z,208.00
2018-02-16T06:54:58.492Z,212.00
2018-02-16T06:55:58.441Z,220.00
2018-02-16T06:57:19.376Z,240.00
2018-02-16T06:57:58.328Z,264.00
2018-02-16T06:58:58.279Z,276.00
2018-02-16T06:59:58.225Z,292.00
2018-02-16T07:00:58.172Z,328.00
2018-02-16T07:01:58.116Z,368.00
2018-02-16T07:03:19.056Z,404.00
2018-02-16T07:03:58.009Z,428.00
2018-02-16T07:04:57.957Z,444.00
2018-02-16T07:05:57.901Z,440.00
2018-02-16T07:06:57.848Z,384.00
2018-02-16T07:07:57.796Z,320.00
2018-02-16T07:09:18.731Z,320.00
2018-02-16T07:09:57.688Z,328.00
2018-02-16T07:10:57.637Z,316.00
2018-02-16T07:11:57.581Z,320.00
2018-02-16T07:12:57.531Z,320.00
2018-02-16T07:13:57.483Z,312.00
2018-02-16T07:15:18.411Z,352.00
2018-02-16T07:15:57.370Z,396.00
2018-02-16T07:16:57.317Z,380.00
2018-02-16T07:17:57.268Z,320.00
2018-02-16T07:18:57.211Z,312.00
2018-02-16T07:19:57.158Z,356.00
2018-02-16T07:21:18.096Z,380.00
2018-02-16T07:21:57.049Z,364.00
2018-02-16T07:22:56.998Z,360.00
2018-02-16T07:23:56.945Z,384.00
2018-02-16T07:24:56.892Z,432.00
2018-02-16T07:25:56.838Z,456.00
2018-02-16T07:27:17.779Z,472.00
2018-02-16T07:27:56.733Z,528.00
2018-02-16T07:28:56.682Z,560.00
2018-02-16T07:29:56.625Z,548.00
2018-02-16T07:30:56.573Z,520.00
2018-02-16T07:31:56.523Z,536.00
2018-02-16T07:33:17.457Z,596.00
2018-02-16T07:33:56.416Z,640.00
2018-02-16T07:34:56.364Z,680.00
2018-02-16T07:35:56.308Z,760.00
2018-02-16T07:36:56.257Z,816.00
2018-02-16T07:37:56.205Z,820.00
2018-02-16T07:39:17.140Z,872.00
2018-02-16T07:39:56.099Z,908.00
2018-02-16T07:40:56.049Z,880.00
2018-02-16T07:41:55.992Z,804.00
2018-02-16T07:42:55.940Z,756.00
2018-02-16T07:43:55.887Z,776.00
2018-02-16T07:45:16.825Z,820.00
2018-02-16T07:45:55.785Z,836.00
2018-02-16T07:46:55.731Z,808.00
2018-02-16T07:47:55.674Z,768.00
2018-02-16T07:48:55.626Z,820.00
2018-02-16T07:49:55.570Z,952.00
2018-02-16T07:51:16.510Z,1056.00
2018-02-16T07:51:55.465Z,1076.00
2018-02-16T07:52:55.414Z,1084.00
2018-02-16T07:53:55.357Z,1124.00
2018-02-16T07:54:55.308Z,1192.00
2018-02-16T07:55:55.254Z,1232.00
2018-02-16T07:57:16.192Z,1264.00
2018-02-16T07:57:55.148Z,1272.00
2018-02-16T07:58:55.095Z,1256.00
2018-02-16T07:59:55.043Z,1244.00
2018-02-16T08:00:54.993Z,1228.00
2018-02-16T08:01:54.938Z,1164.00
2018-02-16T08:03:15.880Z,1132.00
2018-02-16T08:03:54.831Z,1120.00
2018-02-16T08:04:54.781Z,1080.00
2018-02-16T08:05:54.729Z,1064.00
2018-02-16T08:06:54.674Z,1068.00
2018-02-16T08:07:54.621Z,1032.00
2018-02-16T08:09:15.560Z,1032.00
2018-02-16T08:09:54.523Z,1052.00
2018-02-16T08:10:54.464Z,1112.00
2018-02-16T08:11:54.412Z,1152.00
2018-02-16T08:12:54.360Z,1136.00
2018-02-16T08:13:54.305Z,1144.00
2018-02-16T08:15:15.249Z,1188.00
2018-02-16T08:15:54.201Z,1252.00
2018-02-16T08:16:54.169Z,1272.00
2018-02-16T08:17:54.096Z,1276.00
2018-02-16T08:18:54.044Z,1308.00
2018-02-16T08:19:53.991Z,1408.00
2018-02-16T08:21:14.931Z,1480.00
2018-02-16T08:21:53.889Z,1468.00
2018-02-16T08:22:53.839Z,1472.00
2018-02-16T08:23:53.781Z,1516.00
2018-02-16T08:24:53.729Z,1596.00
2018-02-16T08:25:53.681Z,1680.00
2018-02-16T08:27:14.615Z,1684.00
2018-02-16T08:27:53.576Z,1588.00
2018-02-16T08:28:53.520Z,1504.00
2018-02-16T08:29:53.470Z,1424.00
2018-02-16T08:30:53.415Z,1436.00
2018-02-16T08:31:53.364Z,1444.00
2018-02-16T08:33:14.302Z,1488.00
2018-02-16T08:33:53.261Z,1476.00
2018-02-16T08:34:53.207Z,1532.00
2018-02-16T08:35:53.152Z,1580.00
2018-02-16T08:36:53.100Z,1544.00
2018-02-16T08:37:53.049Z,1556.00
2018-02-16T08:39:13.990Z,1484.00
2018-02-16T08:39:52.942Z,1296.00
2018-02-16T08:40:52.890Z,1452.00
2018-02-16T08:41:52.840Z,1524.00
2018-02-16T08:42:52.788Z,1444.00
2018-02-16T08:43:52.739Z,1656.00
2018-02-16T08:45:13.673Z,1972.00
2018-02-16T08:45:52.633Z,2120.00
2018-02-16T08:46:52.578Z,2076.00
2018-02-16T08:47:52.529Z,1884.00
2018-02-16T08:48:52.474Z,1944.00
2018-02-16T08:49:52.421Z,2080.00
2018-02-16T08:51:13.359Z,2252.00
2018-02-16T08:51:52.320Z,2324.00
2018-02-16T08:52:52.265Z,2256.00
2018-02-16T08:53:52.211Z,2200.00
2018-02-16T08:54:52.164Z,2100.00
2018-02-16T08:55:52.107Z,1960.00
2018-02-16T08:57:13.067Z,1800.00
2018-02-16T08:57:52.003Z,1796.00
2018-02-16T08:58:51.950Z,1740.00
2018-02-16T08:59:51.901Z,1704.00
2018-02-16T09:00:51.848Z,1760.00
2018-02-16T09:01:51.794Z,1856.00
2018-02-16T09:03:12.734Z,1920.00
2018-02-16T09:03:51.693Z,1924.00
2018-02-16T09:04:51.640Z,1996.00
2018-02-16T09:05:51.587Z,2120.00
2018-02-16T09:06:51.536Z,2132.00
2018-02-16T09:07:51.482Z,2068.00
2018-02-16T09:09:12.421Z,2200.00
2018-02-16T09:09:51.379Z,2388.00
2018-02-16T09:10:51.326Z,2252.00
2018-02-16T09:11:51.278Z,1948.00
2018-02-16T09:12:51.221Z,1668.00
2018-02-16T09:13:51.170Z,1660.00
2018-02-16T09:15:12.110Z,1800.00
2018-02-16T09:15:51.065Z,1808.00
2018-02-16T09:16:51.012Z,1748.00
2018-02-16T09:17:50.962Z,1708.00
2018-02-16T09:18:50.909Z,1652.00
2018-02-16T09:19:50.861Z,1588.00
2018-02-16T09:21:11.794Z,1604.00
2018-02-16T09:21:50.756Z,1588.00
2018-02-16T09:22:50.704Z,1504.00
2018-02-16T09:23:50.649Z,1424.00
2018-02-16T09:24:50.597Z,1628.00
2018-02-16T09:25:50.545Z,1724.00
2018-02-16T09:27:11.484Z,1804.00
2018-02-16T09:27:50.441Z,2100.00
2018-02-16T09:28:50.387Z,2444.00
2018-02-16T09:29:50.337Z,2664.00
2018-02-16T09:30:50.284Z,3416.00
2018-02-16T09:31:50.234Z,3552.00
2018-02-16T09:33:11.172Z,3696.00
2018-02-16T09:33:50.126Z,3692.00
2018-02-16T09:34:50.082Z,3016.00
2018-02-16T09:35:50.024Z,2688.00
2018-02-16T09:36:49.971Z,2748.00
2018-02-16T09:37:49.917Z,2684.00
2018-02-16T09:39:10.862Z,2620.00
2018-02-16T09:39:49.818Z,2664.00
2018-02-16T09:40:49.764Z,2796.00
2018-02-16T09:41:49.716Z,2988.00
2018-02-16T09:42:49.665Z,3260.00
2018-02-16T09:43:49.652Z,3464.00
2018-02-16T09:45:10.546Z,3536.00
2018-02-16T09:45:49.506Z,3780.00
2018-02-16T09:46:49.454Z,4120.00
2018-02-16T09:47:49.402Z,4300.00
2018-02-16T09:48:49.349Z,3912.00
2018-02-16T09:49:49.299Z,3676.00
2018-02-16T09:51:10.239Z,3428.00
2018-02-16T09:51:49.193Z,3288.00
2018-02-16T09:52:49.140Z,3356.00
2018-02-16T09:53:49.091Z,3500.00
2018-02-16T09:54:49.038Z,3240.00
2018-02-16T09:55:48.986Z,2964.00
2018-02-16T09:57:09.924Z,2896.00
2018-02-16T09:57:48.880Z,2996.00
2018-02-16T09:58:48.831Z,3108.00
2018-02-16T09:59:48.798Z,3260.00
2018-02-16T10:00:48.730Z,3296.00
2018-02-16T10:01:48.674Z,3292.00
2018-02-16T10:03:09.614Z,2932.00
2018-02-16T10:03:48.574Z,2368.00
2018-02-16T10:04:48.521Z,2260.00
2018-02-16T10:05:48.467Z,2252.00
2018-02-16T10:06:48.417Z,2120.00
2018-02-16T10:07:48.364Z,1912.00
2018-02-16T10:09:09.303Z,1952.00
2018-02-16T10:09:48.262Z,2228.00
2018-02-16T10:10:48.209Z,2296.00
2018-02-16T10:11:48.156Z,2024.00
2018-02-16T10:12:48.158Z,2056.00
2018-02-16T10:13:48.052Z,1932.00
2018-02-16T10:15:08.994Z,1704.00
2018-02-16T10:15:47.951Z,1648.00
2018-02-16T10:16:47.900Z,1468.00
2018-02-16T10:17:47.847Z,1416.00
2018-02-16T10:18:47.791Z,1504.00
2018-02-16T10:19:47.745Z,1696.00
2018-02-16T10:21:08.683Z,1768.00
2018-02-16T10:21:47.640Z,2096.00
2018-02-16T10:22:47.589Z,2328.00
2018-02-16T10:23:47.534Z,2260.00
2018-02-16T10:24:47.489Z,2132.00
2018-02-16T10:25:47.429Z,2176.00
2018-02-16T10:27:08.383Z,1884.00
2018-02-16T10:27:47.328Z,2036.00
2018-02-16T10:28:47.275Z,2088.00
2018-02-16T10:29:47.224Z,2496.00
2018-02-16T10:30:47.173Z,2568.00
2018-02-16T10:31:47.128Z,3140.00
2018-02-16T10:33:08.058Z,3816.00
2018-02-16T10:33:47.019Z,3812.00
2018-02-16T10:34:46.968Z,3208.00
2018-02-16T10:35:46.913Z,2748.00
2018-02-16T10:36:46.862Z,3052.00
2018-02-16T10:37:46.808Z,2372.00
2018-02-16T10:39:07.752Z,2152.00
2018-02-16T10:39:46.704Z,3044.00
2018-02-16T10:40:46.653Z,2864.00
2018-02-16T10:41:46.605Z,2760.00
2018-02-16T10:42:46.547Z,3276.00
2018-02-16T10:43:46.500Z,3424.00
2018-02-16T10:45:07.437Z,3212.00
2018-02-16T10:45:46.391Z,3364.00
2018-02-16T10:46:46.337Z,3248.00
2018-02-16T10:47:46.288Z,3492.00
2018-02-16T10:48:46.235Z,2924.00
2018-02-16T10:49:46.189Z,2200.00
2018-02-16T10:51:07.122Z,2024.00
2018-02-16T10:51:46.084Z,2516.00
2018-02-16T10:52:46.026Z,2244.00
2018-02-16T10:53:45.973Z,2036.00
2018-02-16T10:54:45.919Z,2348.00
2018-02-16T10:55:45.868Z,2328.00
2018-02-16T10:57:06.825Z,2516.00
2018-02-16T10:57:45.762Z,2300.00
2018-02-16T10:58:45.727Z,1984.00
2018-02-16T10:59:45.662Z,2340.00
2018-02-16T11:00:45.606Z,2516.00
2018-02-16T11:01:45.551Z,2748.00
2018-02-16T11:03:06.489Z,2600.00
2018-02-16T11:03:45.448Z,2552.00
2018-02-16T11:04:45.396Z,2688.00
2018-02-16T11:05:45.342Z,2068.00
2018-02-16T11:06:45.288Z,2464.00
2018-02-16T11:07:45.235Z,2656.00
2018-02-16T11:09:06.171Z,3408.00
2018-02-16T11:09:45.131Z,4164.00
2018-02-16T11:10:45.076Z,4260.00
2018-02-16T11:11:45.022Z,3084.00
2018-02-16T11:12:44.974Z,2984.00
2018-02-16T11:13:44.917Z,3572.00
2018-02-16T11:15:05.853Z,3692.00
2018-02-16T11:15:44.809Z,3804.00
2018-02-16T11:16:44.758Z,3488.00
2018-02-16T11:17:44.704Z,3724.00
2018-02-16T11:18:44.654Z,3464.00
2018-02-16T11:19:44.598Z,3580.00
2018-02-16T11:21:05.535Z,3456.00
2018-02-16T11:21:44.489Z,3612.00
2018-02-16T11:22:44.439Z,3596.00
2018-02-16T11:23:44.396Z,3536.00
2018-02-16T11:24:44.331Z,3604.00
2018-02-16T11:25:44.276Z,3808.00
2018-02-16T11:27:05.213Z,3340.00
2018-02-16T11:27:44.169Z,3464.00
2018-02-16T11:28:44.114Z,3860.00
2018-02-16T11:29:44.065Z,3904.00
2018-02-16T11:30:44.012Z,3876.00
2018-02-16T11:31:43.956Z,3764.00
2018-02-16T11:33:04.891Z,3828.00
2018-02-16T11:33:43.849Z,3768.00
2018-02-16T11:34:43.792Z,3760.00
2018-02-16T11:35:43.739Z,3916.00
2018-02-16T11:36:43.687Z,4128.00
2018-02-16T11:37:43.632Z,4240.00
2018-02-16T11:39:04.571Z,4344.00
2018-02-16T11:39:43.526Z,4268.00
2018-02-16T11:40:43.468Z,3984.00
2018-02-16T11:41:43.415Z,3444.00
2018-02-16T11:42:43.366Z,3416.00
2018-02-16T11:43:43.311Z,3164.00
2018-02-16T11:45:04.242Z,2820.00
2018-02-16T11:45:43.197Z,2724.00
2018-02-16T11:46:43.147Z,2812.00
2018-02-16T11:47:43.091Z,2828.00
2018-02-16T11:48:43.035Z,2896.00
2018-02-16T11:49:42.981Z,3004.00
2018-02-16T11:51:03.917Z,3316.00
2018-02-16T11:51:42.873Z,3468.00
2018-02-16T11:52:42.819Z,3608.00
2018-02-16T11:53:42.765Z,3540.00
2018-02-16T11:54:42.709Z,3496.00
2018-02-16T11:55:42.654Z,3540.00
2018-02-16T11:57:03.592Z,3312.00
2018-02-16T11:57:42.547Z,2640.00
2018-02-16T11:58:42.493Z,2304.00
2018-02-16T11:59:42.438Z,2260.00
2018-02-16T12:00:42.385Z,2764.00
2018-02-16T12:01:42.328Z,3792.00
2018-02-16T12:03:03.266Z,4752.00
2018-02-16T12:03:42.223Z,5244.00
2018-02-16T12:04:42.167Z,5496.00
2018-02-16T12:05:42.112Z,5752.00
2018-02-16T12:06:42.061Z,5156.00
2018-02-16T12:07:42.004Z,4276.00
2018-02-16T12:09:02.957Z,3840.00
2018-02-16T12:09:41.892Z,3876.00
2018-02-16T12:10:41.838Z,4336.00
2018-02-16T12:11:41.784Z,4344.00
2018-02-16T12:12:41.735Z,4320.00
2018-02-16T12:13:41.677Z,4400.00
2018-02-16T12:15:02.614Z,3972.00
2018-02-16T12:15:41.568Z,3356.00
2018-02-16T12:16:41.517Z,2860.00
2018-02-16T12:17:41.459Z,2592.00
2018-02-16T12:18:41.408Z,2580.00
2018-02-16T12:19:41.354Z,2680.00
2018-02-16T12:21:02.287Z,2648.00
2018-02-16T12:21:41.242Z,2240.00
2018-02-16T12:22:41.189Z,2088.00
2018-02-16T12:23:41.133Z,2084.00
2018-02-16T12:24:41.080Z,2140.00
2018-02-16T12:25:41.022Z,2180.00
2018-02-16T12:27:01.963Z,2024.00
2018-02-16T12:27:40.917Z,1756.00
2018-02-16T12:28:40.861Z,1608.00
2018-02-16T12:29:40.804Z,1496.00
2018-02-16T12:30:40.751Z,1488.00